createdAt,value
2022-08-27T00:00:04.037Z,101212.34
2022-08-27T00:00:34.021Z,101214.16
2022-08-27T00:01:04.002Z,101209.35
2022-08-27T00:01:39.006Z,101210.52
2022-08-27T00:02:09.122Z,101211.34
2022-08-27T00:02:39.146Z,101210.86
2022-08-27T00:03:09.126Z,101208.56
2022-08-27T00:03:39.111Z,101210.72
2022-08-27T00:04:09.199Z,101213.05
2022-08-27T00:04:39.339Z,101207.07
2022-08-27T00:05:09.395Z,101206.41
2022-08-27T00:05:39.383Z,101212.71
2022-08-27T00:06:09.359Z,101209.22
2022-08-27T00:06:40.372Z,101210.05
2022-08-27T00:07:11.267Z,101207.07
2022-08-27T00:07:41.249Z,101210.91
2022-08-27T00:08:11.435Z,101208.39
2022-08-27T00:08:41.564Z,101208.72
2022-08-27T00:09:11.559Z,101207.92
2022-08-27T00:09:41.540Z,101212.38
2022-08-27T00:10:11.520Z,101212.05
2022-08-27T00:10:41.496Z,101210.38
2022-08-27T00:11:11.486Z,101208.42
2022-08-27T00:11:41.519Z,101209.08
2022-08-27T00:12:12.059Z,101210.09
2022-08-27T00:12:42.054Z,101213.23
2022-08-27T00:13:12.044Z,101207.94
2022-08-27T00:13:42.048Z,101207.62
2022-08-27T00:14:12.029Z,101212.59
2022-08-27T00:14:42.014Z,101211.27
2022-08-27T00:15:11.992Z,101212.25
2022-08-27T00:15:46.917Z,101212.89
2022-08-27T00:16:16.961Z,101210.61
2022-08-27T00:16:47.139Z,101208.93
2022-08-27T00:17:17.168Z,101212.11
2022-08-27T00:17:47.145Z,101212.92
2022-08-27T00:18:21.996Z,101213.10
2022-08-27T00:18:52.075Z,101212.27
2022-08-27T00:19:22.066Z,101212.75
2022-08-27T00:19:52.046Z,101214.43
2022-08-27T00:20:22.030Z,101213.44
2022-08-27T00:20:52.040Z,101211.27
2022-08-27T00:21:22.016Z,101212.62
2022-08-27T00:21:52.023Z,101215.59
2022-08-27T00:22:22.026Z,101209.61
2022-08-27T00:22:52.015Z,101210.47
2022-08-27T00:23:22.012Z,101211.77
2022-08-27T00:23:52.013Z,101207.98
2022-08-27T00:24:21.990Z,101208.61
2022-08-27T00:24:51.970Z,101205.14
2022-08-27T00:25:21.960Z,101208.45
2022-08-27T00:25:51.942Z,101207.62
2022-08-27T00:26:21.925Z,101203.19
2022-08-27T00:26:51.907Z,101207.96
2022-08-27T00:27:21.888Z,101205.33
2022-08-27T00:27:51.887Z,101204.14
2022-08-27T00:28:21.871Z,101202.15
2022-08-27T00:28:51.867Z,101197.71
2022-08-27T00:29:21.845Z,101204.80
2022-08-27T00:29:51.859Z,101197.67
2022-08-27T00:30:21.852Z,101201.49
2022-08-27T00:30:51.852Z,101198.83
2022-08-27T00:31:27.236Z,101195.52
2022-08-27T00:31:56.806Z,101196.72
2022-08-27T00:32:26.830Z,101204.00
2022-08-27T00:32:56.834Z,101194.88
2022-08-27T00:33:26.805Z,101197.86
2022-08-27T00:33:56.779Z,101199.02
2022-08-27T00:34:26.764Z,101196.53
2022-08-27T00:34:56.744Z,101195.06
2022-08-27T00:35:26.720Z,101195.22
2022-08-27T00:35:56.699Z,101194.56
2022-08-27T00:36:26.681Z,101195.87
2022-08-27T00:36:56.663Z,101195.25
2022-08-27T00:37:26.645Z,101194.56
2022-08-27T00:37:56.649Z,101192.75
2022-08-27T00:38:26.630Z,101191.95
2022-08-27T00:38:56.607Z,101191.73
2022-08-27T00:39:26.587Z,101187.78
2022-08-27T00:39:56.626Z,101188.09
2022-08-27T00:40:26.699Z,101189.75
2022-08-27T00:40:56.744Z,101190.38
2022-08-27T00:41:26.750Z,101190.04
2022-08-27T00:41:56.729Z,101186.60
2022-08-27T00:42:26.710Z,101187.09
2022-08-27T00:43:00.989Z,101190.40
2022-08-27T00:43:30.967Z,101187.43
2022-08-27T00:44:00.957Z,101187.12
2022-08-27T00:44:30.949Z,101190.44
2022-08-27T00:45:00.930Z,101188.28
2022-08-27T00:45:30.957Z,101192.92
2022-08-27T00:46:01.023Z,101190.59
2022-08-27T00:46:31.068Z,101194.09
2022-08-27T00:47:01.049Z,101189.92
2022-08-27T00:47:31.980Z,101193.58
2022-08-27T00:48:01.972Z,101192.95
2022-08-27T00:48:31.986Z,101186.83
2022-08-27T00:49:01.969Z,101199.08
2022-08-27T00:49:31.954Z,101194.81
2022-08-27T00:50:01.942Z,101195.47
2022-08-27T00:50:31.919Z,101198.74
2022-08-27T00:51:01.894Z,101200.40
2022-08-27T00:51:31.902Z,101197.94
2022-08-27T00:52:01.881Z,101195.78
2022-08-27T00:52:31.875Z,101197.08
2022-08-27T00:53:01.862Z,101200.56
2022-08-27T00:53:31.964Z,101200.56
2022-08-27T00:54:01.972Z,101200.23
2022-08-27T00:54:31.956Z,101197.91
2022-08-27T00:55:01.938Z,101200.06
2022-08-27T00:55:31.921Z,101195.12
2022-08-27T00:56:05.294Z,101200.23
2022-08-27T00:56:35.280Z,101201.42
2022-08-27T00:57:05.275Z,101198.74
2022-08-27T00:57:35.255Z,101198.45
2022-08-27T00:58:05.244Z,101200.92
2022-08-27T00:58:35.922Z,101199.94
2022-08-27T00:59:05.915Z,101200.63
2022-08-27T00:59:35.895Z,101203.42
2022-08-27T01:00:05.886Z,101201.27
2022-08-27T01:00:35.903Z,101205.08
2022-08-27T01:01:05.943Z,101205.75
2022-08-27T01:01:36.085Z,101203.44
2022-08-27T01:02:06.130Z,101209.23
2022-08-27T01:02:36.230Z,101205.77
2022-08-27T01:03:06.270Z,101210.41
2022-08-27T01:03:36.264Z,101210.73
2022-08-27T01:04:06.251Z,101208.56
2022-08-27T01:04:36.246Z,101211.55
2022-08-27T01:05:06.237Z,101206.11
2022-08-27T01:05:36.216Z,101216.22
2022-08-27T01:06:06.198Z,101211.07
2022-08-27T01:06:36.171Z,101211.08
2022-08-27T01:07:06.153Z,101213.54
2022-08-27T01:07:36.142Z,101211.92
2022-08-27T01:08:06.116Z,101210.59
2022-08-27T01:08:36.110Z,101212.59
2022-08-27T01:09:08.760Z,101214.23
2022-08-27T01:09:38.741Z,101213.40
2022-08-27T01:10:08.722Z,101216.48
2022-08-27T01:10:38.721Z,101217.02
2022-08-27T01:11:08.700Z,101214.56
2022-08-27T01:11:38.692Z,101217.38
2022-08-27T01:12:08.673Z,101218.36
2022-08-27T01:12:38.679Z,101218.38
2022-08-27T01:13:08.761Z,101220.53
2022-08-27T01:13:59.215Z,101218.72
2022-08-27T01:14:13.685Z,101220.88
2022-08-27T01:14:43.668Z,101222.06
2022-08-27T01:15:16.967Z,101224.55
2022-08-27T01:15:48.579Z,101228.69
2022-08-27T01:16:18.645Z,101227.55
2022-08-27T01:16:48.638Z,101228.88
2022-08-27T01:17:18.639Z,101229.52
2022-08-27T01:17:48.624Z,101231.37
2022-08-27T01:18:18.607Z,101236.83
2022-08-27T01:18:48.587Z,101232.38
2022-08-27T01:19:18.583Z,101231.70
2022-08-27T01:19:48.578Z,101230.22
2022-08-27T01:20:18.589Z,101231.88
2022-08-27T01:20:48.591Z,101233.53
2022-08-27T01:21:18.586Z,101237.15
2022-08-27T01:21:48.585Z,101233.17
2022-08-27T01:22:20.369Z,101234.18
2022-08-27T01:22:53.463Z,101235.52
2022-08-27T01:23:23.443Z,101233.69
2022-08-27T01:23:53.426Z,101238.00
2022-08-27T01:24:23.408Z,101233.35
2022-08-27T01:24:53.382Z,101240.14
2022-08-27T01:25:23.379Z,101239.98
2022-08-27T01:25:53.374Z,101239.32
2022-08-27T01:26:23.348Z,101238.33
2022-08-27T01:26:53.331Z,101242.28
2022-08-27T01:27:23.448Z,101241.46
2022-08-27T01:27:53.450Z,101242.29
2022-08-27T01:28:23.636Z,101238.16
2022-08-27T01:28:58.379Z,101243.31
2022-08-27T01:29:28.357Z,101242.47
2022-08-27T01:29:58.329Z,101242.97
2022-08-27T01:30:28.336Z,101242.99
2022-08-27T01:30:58.325Z,101243.47
2022-08-27T01:31:28.432Z,101238.36
2022-08-27T01:31:58.452Z,101239.69
2022-08-27T01:32:28.431Z,101236.91
2022-08-27T01:32:58.418Z,101238.70
2022-08-27T01:33:28.400Z,101243.81
2022-08-27T01:33:58.381Z,101242.00
2022-08-27T01:34:28.372Z,101241.18
2022-08-27T01:34:58.356Z,101238.22
2022-08-27T01:35:28.343Z,101246.33
2022-08-27T01:35:58.320Z,101241.56
2022-08-27T01:36:28.297Z,101243.86
2022-08-27T01:36:58.312Z,101246.53
2022-08-27T01:37:28.297Z,101238.91
2022-08-27T01:37:58.300Z,101243.33
2022-08-27T01:38:30.749Z,101247.45
2022-08-27T01:39:01.254Z,101244.19
2022-08-27T01:39:31.231Z,101243.69
2022-08-27T01:40:02.143Z,101246.80
2022-08-27T01:40:32.478Z,101242.22
2022-08-27T01:41:03.288Z,101243.71
2022-08-27T01:41:33.274Z,101238.91
2022-08-27T01:42:03.264Z,101238.58
2022-08-27T01:42:33.255Z,101240.43
2022-08-27T01:43:03.237Z,101241.23
2022-08-27T01:43:33.212Z,101240.57
2022-08-27T01:44:03.190Z,101241.90
2022-08-27T01:44:33.170Z,101240.23
2022-08-27T01:45:05.871Z,101242.07
2022-08-27T01:45:36.031Z,101235.78
2022-08-27T01:46:06.011Z,101233.13
2022-08-27T01:46:36.021Z,101237.42
2022-08-27T01:47:06.054Z,101232.97
2022-08-27T01:47:36.047Z,101235.08
2022-08-27T01:48:06.026Z,101232.78
2022-08-27T01:48:36.020Z,101231.97
2022-08-27T01:49:05.997Z,101229.95
2022-08-27T01:49:36.028Z,101233.94
2022-08-27T01:50:06.023Z,101228.33
2022-08-27T01:50:36.028Z,101233.94
2022-08-27T01:51:06.026Z,101232.97
2022-08-27T01:51:36.002Z,101232.61
2022-08-27T01:52:05.992Z,101234.77
2022-08-27T01:52:35.980Z,101232.83
2022-08-27T01:53:05.982Z,101229.81
2022-08-27T01:53:35.970Z,101229.81
2022-08-27T01:54:05.988Z,101231.62
2022-08-27T01:54:35.983Z,101229.65
2022-08-27T01:55:05.963Z,101231.64
2022-08-27T01:55:35.935Z,101228.67
2022-08-27T01:56:05.916Z,101230.48
2022-08-27T01:56:35.919Z,101228.34
2022-08-27T01:57:05.911Z,101230.83
2022-08-27T01:57:35.894Z,101229.16
2022-08-27T01:58:05.877Z,101230.81
2022-08-27T01:58:35.870Z,101229.16
2022-08-27T01:59:05.858Z,101227.34
2022-08-27T01:59:39.383Z,101230.64
2022-08-27T02:00:10.061Z,101226.53
2022-08-27T02:00:40.072Z,101229.81
2022-08-27T02:01:10.203Z,101226.05
2022-08-27T02:01:40.285Z,101225.87
2022-08-27T02:02:10.337Z,101227.36
2022-08-27T02:02:40.414Z,101223.84
2022-08-27T02:03:10.407Z,101222.53
2022-08-27T02:03:40.389Z,101225.20
2022-08-27T02:04:10.378Z,101227.37
2022-08-27T02:04:40.385Z,101229.17
2022-08-27T02:05:10.397Z,101223.71
2022-08-27T02:05:45.015Z,101222.55
2022-08-27T02:06:15.196Z,101221.89
2022-08-27T02:06:45.182Z,101219.73
2022-08-27T02:07:15.164Z,101222.22
2022-08-27T02:07:45.147Z,101220.23
2022-08-27T02:08:15.128Z,101216.60
2022-08-27T02:08:45.111Z,101216.65
2022-08-27T02:09:15.097Z,101220.46
2022-08-27T02:09:45.977Z,101217.80
2022-08-27T02:10:15.965Z,101214.49
2022-08-27T02:10:45.947Z,101214.83
2022-08-27T02:11:15.928Z,101214.84
2022-08-27T02:11:45.910Z,101215.75
2022-08-27T02:12:15.892Z,101208.17
2022-08-27T02:12:45.873Z,101212.78
2022-08-27T02:13:15.846Z,101218.24
2022-08-27T02:13:45.829Z,101215.59
2022-08-27T02:14:15.824Z,101217.23
2022-08-27T02:14:45.810Z,101216.23
2022-08-27T02:15:15.787Z,101212.59
2022-08-27T02:15:45.775Z,101214.94
2022-08-27T02:16:15.824Z,101214.56
2022-08-27T02:16:52.272Z,101212.92
2022-08-27T02:17:20.739Z,101211.62
2022-08-27T02:17:50.723Z,101211.80
2022-08-27T02:18:20.702Z,101213.12
2022-08-27T02:18:50.697Z,101212.64
2022-08-27T02:19:20.682Z,101213.50
2022-08-27T02:19:51.991Z,101213.44
2022-08-27T02:20:21.985Z,101209.19
2022-08-27T02:20:51.968Z,101213.28
2022-08-27T02:21:21.973Z,101212.67
2022-08-27T02:21:51.957Z,101210.34
2022-08-27T02:22:21.975Z,101211.34
2022-08-27T02:22:51.962Z,101209.18
2022-08-27T02:23:21.939Z,101209.67
2022-08-27T02:23:51.916Z,101209.84
2022-08-27T02:24:23.000Z,101204.88
2022-08-27T02:24:52.993Z,101207.55
2022-08-27T02:25:22.975Z,101207.56
2022-08-27T02:25:52.961Z,101211.17
2022-08-27T02:26:22.940Z,101211.38
2022-08-27T02:26:52.917Z,101211.69
2022-08-27T02:27:22.893Z,101210.02
2022-08-27T02:27:52.874Z,101213.86
2022-08-27T02:28:22.869Z,101209.56
2022-08-27T02:28:52.851Z,101212.38
2022-08-27T02:29:22.826Z,101211.52
2022-08-27T02:29:52.834Z,101209.55
2022-08-27T02:30:22.869Z,101211.38
2022-08-27T02:30:52.859Z,101206.90
2022-08-27T02:31:22.965Z,101210.86
2022-08-27T02:31:53.016Z,101214.51
2022-08-27T02:32:32.245Z,101211.34
2022-08-27T02:32:57.912Z,101212.16
2022-08-27T02:33:27.889Z,101211.65
2022-08-27T02:33:57.880Z,101211.02
2022-08-27T02:34:27.864Z,101216.80
2022-08-27T02:34:57.843Z,101212.19
2022-08-27T02:35:27.846Z,101212.37
2022-08-27T02:35:57.819Z,101216.50
2022-08-27T02:36:27.794Z,101217.99
2022-08-27T02:36:57.775Z,101215.17
2022-08-27T02:37:27.758Z,101213.20
2022-08-27T02:37:57.742Z,101218.67
2022-08-27T02:38:27.727Z,101215.56
2022-08-27T02:38:57.718Z,101215.05
2022-08-27T02:39:27.699Z,101221.52
2022-08-27T02:39:57.773Z,101218.87
2022-08-27T02:40:27.843Z,101215.39
2022-08-27T02:40:57.877Z,101218.02
2022-08-27T02:41:27.859Z,101216.72
2022-08-27T02:41:57.840Z,101217.17
2022-08-27T02:42:27.814Z,101216.03
2022-08-27T02:42:57.817Z,101218.66
2022-08-27T02:43:27.820Z,101219.18
2022-08-27T02:43:58.242Z,101218.36
2022-08-27T02:44:31.218Z,101218.85
2022-08-27T02:45:01.208Z,101219.70
2022-08-27T02:45:31.193Z,101223.18
2022-08-27T02:46:01.168Z,101219.20
2022-08-27T02:46:31.231Z,101217.52
2022-08-27T02:47:01.276Z,101220.53
2022-08-27T02:47:31.263Z,101221.01
2022-08-27T02:48:01.244Z,101217.52
2022-08-27T02:48:31.226Z,101220.20
2022-08-27T02:49:01.205Z,101218.22
2022-08-27T02:49:31.197Z,101218.70
2022-08-27T02:50:01.184Z,101218.87
2022-08-27T02:50:31.171Z,101223.34
2022-08-27T02:51:01.155Z,101223.84
2022-08-27T02:51:31.135Z,101223.69
2022-08-27T02:52:01.132Z,101227.17
2022-08-27T02:52:31.109Z,101226.51
2022-08-27T02:53:01.104Z,101224.41
2022-08-27T02:53:31.083Z,101227.17
2022-08-27T02:54:01.057Z,101223.19
2022-08-27T02:54:32.039Z,101230.64
2022-08-27T02:55:02.536Z,101227.50
2022-08-27T02:55:32.518Z,101221.72
2022-08-27T02:56:02.498Z,101224.38
2022-08-27T02:56:32.480Z,101222.70
2022-08-27T02:57:02.473Z,101223.73
2022-08-27T02:57:36.638Z,101228.55
2022-08-27T02:58:07.014Z,101225.56
2022-08-27T02:58:37.043Z,101223.91
2022-08-27T02:59:07.024Z,101224.91
2022-08-27T02:59:37.006Z,101223.58
2022-08-27T03:00:06.998Z,101223.91
2022-08-27T03:00:36.989Z,101220.73
2022-08-27T03:01:06.981Z,101224.86
2022-08-27T03:01:41.980Z,101222.72
2022-08-27T03:02:12.184Z,101221.89
2022-08-27T03:02:42.298Z,101219.59
2022-08-27T03:03:12.298Z,101224.23
2022-08-27T03:03:42.298Z,101224.88
2022-08-27T03:04:12.279Z,101222.41
2022-08-27T03:04:42.265Z,101224.55
2022-08-27T03:05:12.257Z,101227.07
2022-08-27T03:05:42.266Z,101224.56
2022-08-27T03:06:12.238Z,101226.20
2022-08-27T03:06:42.211Z,101228.72
2022-08-27T03:07:18.503Z,101228.50
2022-08-27T03:07:47.128Z,101233.19
2022-08-27T03:08:17.111Z,101227.88
2022-08-27T03:08:52.989Z,101225.06
2022-08-27T03:09:22.012Z,101227.39
2022-08-27T03:09:51.982Z,101223.73
2022-08-27T03:10:21.972Z,101226.72
2022-08-27T03:10:51.946Z,101225.73
2022-08-27T03:11:21.927Z,101224.59
2022-08-27T03:11:51.911Z,101223.41
2022-08-27T03:12:22.739Z,101224.58
2022-08-27T03:12:54.946Z,101225.73
2022-08-27T03:13:24.918Z,101226.08
2022-08-27T03:13:54.911Z,101225.39
2022-08-27T03:14:24.911Z,101219.75
2022-08-27T03:14:54.895Z,101225.72
2022-08-27T03:15:24.891Z,101221.95
2022-08-27T03:15:54.943Z,101224.42
2022-08-27T03:16:25.007Z,101220.77
2022-08-27T03:16:54.999Z,101216.62
2022-08-27T03:17:24.995Z,101221.08
2022-08-27T03:17:54.974Z,101219.23
2022-08-27T03:18:24.955Z,101222.91
2022-08-27T03:18:54.939Z,101222.25
2022-08-27T03:19:24.930Z,101217.92
2022-08-27T03:19:54.913Z,101222.22
2022-08-27T03:20:24.899Z,101222.55
2022-08-27T03:20:54.893Z,101218.76
2022-08-27T03:21:24.888Z,101218.28
2022-08-27T03:21:55.066Z,101220.94
2022-08-27T03:22:25.076Z,101217.28
2022-08-27T03:22:55.048Z,101222.78
2022-08-27T03:23:25.031Z,101226.08
2022-08-27T03:23:55.015Z,101219.11
2022-08-27T03:24:24.996Z,101224.92
2022-08-27T03:24:54.991Z,101222.77
2022-08-27T03:25:24.987Z,101221.78
2022-08-27T03:25:54.986Z,101214.67
2022-08-27T03:26:24.972Z,101218.79
2022-08-27T03:26:54.948Z,101221.12
2022-08-27T03:27:24.919Z,101223.44
2022-08-27T03:27:54.894Z,101219.78
2022-08-27T03:28:24.883Z,101218.98
2022-08-27T03:28:54.865Z,101220.78
2022-08-27T03:29:24.846Z,101218.12
2022-08-27T03:29:54.823Z,101215.80
2022-08-27T03:30:24.807Z,101218.12
2022-08-27T03:30:54.854Z,101220.94
2022-08-27T03:31:24.919Z,101221.28
2022-08-27T03:31:54.969Z,101219.80
2022-08-27T03:32:24.948Z,101219.66
2022-08-27T03:32:54.929Z,101217.84
2022-08-27T03:33:24.911Z,101220.78
2022-08-27T03:33:54.893Z,101225.61
2022-08-27T03:34:24.874Z,101219.99
2022-08-27T03:34:54.856Z,101221.78
2022-08-27T03:35:24.856Z,101219.78
2022-08-27T03:35:54.842Z,101219.33
2022-08-27T03:36:24.862Z,101223.79
2022-08-27T03:36:54.849Z,101224.12
2022-08-27T03:37:24.836Z,101226.75
2022-08-27T03:37:54.819Z,101223.16
2022-08-27T03:38:24.990Z,101219.16
2022-08-27T03:38:54.987Z,101228.23
2022-08-27T03:39:24.971Z,101219.48
2022-08-27T03:39:55.048Z,101223.47
2022-08-27T03:40:25.161Z,101228.45
2022-08-27T03:40:55.222Z,101220.83
2022-08-27T03:41:53.892Z,101227.45
2022-08-27T03:42:00.126Z,101220.67
2022-08-27T03:42:30.103Z,101222.98
2022-08-27T03:43:00.085Z,101225.28
2022-08-27T03:43:30.082Z,101227.28
2022-08-27T03:44:00.077Z,101223.47
2022-08-27T03:44:30.054Z,101228.78
2022-08-27T03:45:00.042Z,101224.97
2022-08-27T03:45:30.049Z,101223.97
2022-08-27T03:46:04.976Z,101229.11
2022-08-27T03:46:34.977Z,101228.46
2022-08-27T03:47:04.986Z,101226.16
2022-08-27T03:47:34.970Z,101231.11
2022-08-27T03:48:04.975Z,101223.17
2022-08-27T03:48:34.953Z,101225.48
2022-08-27T03:49:04.933Z,101226.12
2022-08-27T03:49:34.912Z,101230.27
2022-08-27T03:50:04.889Z,101227.30
2022-08-27T03:50:34.867Z,101225.33
2022-08-27T03:51:04.862Z,101228.80
2022-08-27T03:51:34.878Z,101230.31
2022-08-27T03:52:04.867Z,101226.49
2022-08-27T03:52:34.850Z,101228.80
2022-08-27T03:53:04.856Z,101224.83
2022-08-27T03:53:34.836Z,101229.62
2022-08-27T03:54:04.841Z,101224.50
2022-08-27T03:54:34.838Z,101225.48
2022-08-27T03:55:04.839Z,101226.32
2022-08-27T03:55:34.817Z,101229.81
2022-08-27T03:56:04.796Z,101220.86
2022-08-27T03:56:34.790Z,101227.47
2022-08-27T03:57:04.771Z,101224.67
2022-08-27T03:57:34.754Z,101229.14
2022-08-27T03:58:04.736Z,101224.17
2022-08-27T03:58:34.738Z,101221.35
2022-08-27T03:59:04.740Z,101223.84
2022-08-27T03:59:34.726Z,101229.14
2022-08-27T04:00:04.704Z,101227.64
2022-08-27T04:00:34.690Z,101224.17
2022-08-27T04:01:04.712Z,101225.68
2022-08-27T04:01:34.773Z,101223.72
2022-08-27T04:02:04.935Z,101225.87
2022-08-27T04:02:34.997Z,101225.53
2022-08-27T04:03:05.085Z,101223.88
2022-08-27T04:03:35.096Z,101229.47
2022-08-27T04:04:05.083Z,101229.30
2022-08-27T04:04:35.077Z,101224.38
2022-08-27T04:05:05.058Z,101225.87
2022-08-27T04:05:35.038Z,101226.53
2022-08-27T04:06:05.144Z,101227.36
2022-08-27T04:06:35.153Z,101229.00
2022-08-27T04:07:05.143Z,101224.35
2022-08-27T04:07:35.120Z,101228.14
2022-08-27T04:08:05.096Z,101231.62
2022-08-27T04:08:35.078Z,101223.88
2022-08-27T04:09:05.061Z,101229.19
2022-08-27T04:09:35.039Z,101228.20
2022-08-27T04:10:05.023Z,101229.86
2022-08-27T04:10:35.148Z,101223.25
2022-08-27T04:11:05.156Z,101229.53
2022-08-27T04:11:35.162Z,101228.02
2022-08-27T04:12:05.175Z,101227.50
2022-08-27T04:12:35.166Z,101226.03
2022-08-27T04:13:05.146Z,101234.77
2022-08-27T04:13:35.143Z,101228.52
2022-08-27T04:14:18.220Z,101226.69
2022-08-27T04:14:40.080Z,101230.36
2022-08-27T04:15:10.087Z,101229.37
2022-08-27T04:15:40.653Z,101225.20
2022-08-27T04:16:10.936Z,101227.38
2022-08-27T04:16:40.926Z,101225.06
2022-08-27T04:17:10.908Z,101221.08
2022-08-27T04:17:40.889Z,101221.91
2022-08-27T04:18:10.974Z,101223.56
2022-08-27T04:18:41.052Z,101225.20
2022-08-27T04:19:11.041Z,101225.20
2022-08-27T04:19:42.131Z,101224.20
2022-08-27T04:20:33.882Z,101225.05
2022-08-27T04:20:47.037Z,101222.73
2022-08-27T04:21:17.037Z,101220.91
2022-08-27T04:21:47.015Z,101216.44
2022-08-27T04:22:16.998Z,101218.56
2022-08-27T04:22:47.003Z,101220.06
2022-08-27T04:23:17.000Z,101224.08
2022-08-27T04:23:46.987Z,101218.61
2022-08-27T04:24:16.978Z,101221.59
2022-08-27T04:24:46.970Z,101221.59
2022-08-27T04:25:16.984Z,101225.76
2022-08-27T04:25:47.000Z,101224.24
2022-08-27T04:26:16.984Z,101221.11
2022-08-27T04:26:46.975Z,101222.92
2022-08-27T04:27:16.975Z,101222.92
2022-08-27T04:27:46.982Z,101223.55
2022-08-27T04:28:16.962Z,101226.05
2022-08-27T04:28:48.647Z,101226.23
2022-08-27T04:29:18.727Z,101228.39
2022-08-27T04:29:49.000Z,101226.42
2022-08-27T04:30:21.296Z,101227.08
2022-08-27T04:30:51.310Z,101228.07
2022-08-27T04:31:21.361Z,101230.06
2022-08-27T04:31:51.376Z,101224.27
2022-08-27T04:32:21.362Z,101231.56
2022-08-27T04:32:51.344Z,101227.09
2022-08-27T04:33:21.326Z,101229.08
2022-08-27T04:33:51.560Z,101230.07
2022-08-27T04:34:21.551Z,101231.74
2022-08-27T04:34:51.532Z,101230.89
2022-08-27T04:35:21.515Z,101232.20
2022-08-27T04:35:51.489Z,101232.34
2022-08-27T04:36:21.491Z,101232.67
2022-08-27T04:36:51.492Z,101230.06
2022-08-27T04:37:21.494Z,101232.70
2022-08-27T04:37:53.387Z,101232.38
2022-08-27T04:38:23.379Z,101231.06
2022-08-27T04:38:53.352Z,101228.07
2022-08-27T04:39:23.365Z,101229.58
2022-08-27T04:39:53.399Z,101225.43
2022-08-27T04:40:23.514Z,101224.42
2022-08-27T04:40:53.603Z,101226.56
2022-08-27T04:41:24.599Z,101227.23
2022-08-27T04:41:54.601Z,101222.94
2022-08-27T04:42:24.584Z,101225.59
2022-08-27T04:42:54.566Z,101222.44
2022-08-27T04:43:24.559Z,101221.80
2022-08-27T04:43:54.561Z,101222.95
2022-08-27T04:44:24.541Z,101227.77
2022-08-27T04:44:54.532Z,101224.94
2022-08-27T04:45:24.548Z,101225.62
2022-08-27T04:45:54.542Z,101231.22
2022-08-27T04:46:24.624Z,101227.24
2022-08-27T04:46:54.726Z,101225.10
2022-08-27T04:47:24.763Z,101227.73
2022-08-27T04:47:54.744Z,101232.23
2022-08-27T04:48:24.749Z,101229.06
2022-08-27T04:48:55.407Z,101229.94
2022-08-27T04:49:25.380Z,101232.39
2022-08-27T04:49:55.359Z,101229.60
2022-08-27T04:50:27.199Z,101232.41
2022-08-27T04:50:57.180Z,101229.25
2022-08-27T04:51:27.171Z,101229.11
2022-08-27T04:51:57.148Z,101231.41
2022-08-27T04:52:27.666Z,101231.76
2022-08-27T04:52:57.638Z,101232.41
2022-08-27T04:53:27.614Z,101236.86
2022-08-27T04:53:57.606Z,101231.57
2022-08-27T04:54:32.836Z,101228.25
2022-08-27T04:55:03.210Z,101232.22
2022-08-27T04:55:33.184Z,101227.24
2022-08-27T04:56:03.159Z,101229.89
2022-08-27T04:56:33.154Z,101235.37
2022-08-27T04:57:03.144Z,101232.38
2022-08-27T04:57:33.140Z,101231.90
2022-08-27T04:58:03.210Z,101232.23
2022-08-27T04:58:33.249Z,101231.08
2022-08-27T04:59:04.858Z,101233.54
2022-08-27T04:59:34.840Z,101229.73
2022-08-27T05:00:04.825Z,101228.26
2022-08-27T05:00:34.808Z,101234.23
2022-08-27T05:01:04.793Z,101227.44
2022-08-27T05:01:34.875Z,101228.23
2022-08-27T05:02:05.082Z,101230.25
2022-08-27T05:02:35.118Z,101227.92
2022-08-27T05:03:05.106Z,101231.22
2022-08-27T05:03:35.108Z,101227.59
2022-08-27T05:04:05.091Z,101231.25
2022-08-27T05:04:35.090Z,101230.89
2022-08-27T05:05:05.149Z,101232.55
2022-08-27T05:05:35.286Z,101233.03
2022-08-27T05:06:08.314Z,101225.25
2022-08-27T05:06:38.304Z,101228.58
2022-08-27T05:07:08.286Z,101229.55
2022-08-27T05:07:38.282Z,101228.91
2022-08-27T05:08:08.328Z,101231.56
2022-08-27T05:08:38.331Z,101232.02
2022-08-27T05:09:08.328Z,101226.91
2022-08-27T05:09:38.302Z,101236.98
2022-08-27T05:10:08.285Z,101230.21
2022-08-27T05:10:38.268Z,101230.54
2022-08-27T05:11:08.287Z,101231.04
2022-08-27T05:11:38.262Z,101232.02
2022-08-27T05:12:08.250Z,101232.70
2022-08-27T05:12:38.236Z,101227.89
2022-08-27T05:13:08.237Z,101231.20
2022-08-27T05:13:38.244Z,101237.98
2022-08-27T05:14:08.238Z,101236.18
2022-08-27T05:14:38.216Z,101232.55
2022-08-27T05:15:08.198Z,101236.03
2022-08-27T05:15:38.270Z,101237.20
2022-08-27T05:16:08.366Z,101240.18
2022-08-27T05:16:38.393Z,101239.19
2022-08-27T05:17:08.377Z,101237.02
2022-08-27T05:17:38.361Z,101238.81
2022-08-27T05:18:08.426Z,101240.48
2022-08-27T05:18:48.346Z,101234.87
2022-08-27T05:19:13.464Z,101233.38
2022-08-27T05:19:43.502Z,101236.19
2022-08-27T05:20:13.487Z,101240.34
2022-08-27T05:20:43.474Z,101239.16
2022-08-27T05:21:13.458Z,101239.50
2022-08-27T05:21:43.455Z,101236.67
2022-08-27T05:22:13.432Z,101238.66
2022-08-27T05:22:43.416Z,101240.96
2022-08-27T05:23:13.398Z,101240.17
2022-08-27T05:23:43.375Z,101238.66
2022-08-27T05:24:13.374Z,101241.31
2022-08-27T05:24:47.112Z,101242.81
2022-08-27T05:25:18.293Z,101242.29
2022-08-27T05:25:48.274Z,101242.81
2022-08-27T05:26:18.257Z,101247.27
2022-08-27T05:26:48.248Z,101248.10
2022-08-27T05:27:18.223Z,101244.94
2022-08-27T05:27:48.210Z,101245.61
2022-08-27T05:28:18.194Z,101241.80
2022-08-27T05:28:48.181Z,101248.59
2022-08-27T05:29:18.173Z,101249.42
2022-08-27T05:29:48.156Z,101251.75
2022-08-27T05:30:18.141Z,101248.43
2022-08-27T05:30:52.422Z,101248.43
2022-08-27T05:31:23.124Z,101247.77
2022-08-27T05:31:53.158Z,101247.27
2022-08-27T05:32:23.136Z,101250.25
2022-08-27T05:32:53.118Z,101248.61
2022-08-27T05:33:23.119Z,101249.76
2022-08-27T05:33:53.098Z,101247.75
2022-08-27T05:34:26.956Z,101248.91
2022-08-27T05:34:57.470Z,101245.59
2022-08-27T05:35:27.455Z,101247.11
2022-08-27T05:35:57.436Z,101248.92
2022-08-27T05:36:27.440Z,101251.91
2022-08-27T05:36:57.446Z,101248.73
2022-08-27T05:37:27.424Z,101250.89
2022-08-27T05:37:57.425Z,101255.38
2022-08-27T05:38:27.403Z,101251.41
2022-08-27T05:38:57.382Z,101250.59
2022-08-27T05:39:27.375Z,101251.55
2022-08-27T05:39:57.419Z,101249.57
2022-08-27T05:40:27.562Z,101249.05
2022-08-27T05:40:57.640Z,101248.39
2022-08-27T05:41:34.236Z,101247.44
2022-08-27T05:42:02.564Z,101249.59
2022-08-27T05:42:32.546Z,101249.26
2022-08-27T05:43:02.538Z,101251.73
2022-08-27T05:43:32.516Z,101247.58
2022-08-27T05:44:07.709Z,101249.76
2022-08-27T05:44:40.925Z,101244.13
2022-08-27T05:45:11.744Z,101247.95